KCON/CON METAR and TAF weather

Enter ICAO airport designator
Station Type Date Time Source
KCON METAR 2020/02/29 02:51 UTC NOAA

KCON 290251Z AUTO 26003KT 10SM CLR M04/M12 A2977 RMK AO2 SLP085 T10391122 50004


Station Type Date Time Source
KCON Decoded METAR 2020/02/29 02:51 UTC NOAA

Concord, Concord Municipal Airport, NH, United States (KCON) 43-11-43N 071-30-04W 103M
Feb 28, 2020 - 09:51 PM EST / 2020.02.29 0251 UTC
Wind: from the W (260 degrees) at 3 MPH (3 KT):0
Visibility: 10 mile(s):0
Sky conditions: clear
Temperature: 25.0 F (-3.9 C)
Dew Point: 10.0 F (-12.2 C)
Relative Humidity: 52%
Pressure (altimeter): 29.77 in. Hg (1008 hPa)
Pressure tendency: 0.01 inches (0.4 hPa) higher than three hours ago
ob: KCON 290251Z AUTO 26003KT 10SM CLR M04/M12 A2977 RMK AO2 SLP085 T10391122 50004
cycle: 3

Station Type Date Time Source
KCON TAF 2020/02/28 18:33 UTC NOAA

TAF KCON 281731Z 2818/2918 25013G22KT P6SM SCT060
FM290100 25006KT P6SM SKC
FM290500 23004KT P6SM SCT100

Example: see airport list